Time;durP1;ratioP1;P1;durP2;ratioP2;P2;SDS_P1;SDS_P2;PMS_P1;PMS_P2;Temp;Humidity;BMP_temperature;BMP_pressure;BME280_temperature;BME280_humidity;BME280_pressure;Samples;Min_cycle;Max_cycle;Signal;HPM_P1;HPM_P2
2022/09/21 00:02:27;;;;;;;2.17;1.92;;;20.10;99.80;;;;;;10128620;29;20350;-81
2022/09/21 00:07:30;;;;;;;2.65;1.70;;;20.10;99.80;;;;;;10112822;29;20264;-81
2022/09/21 00:12:32;;;;;;;2.58;2.00;;;20.10;99.70;;;;;;10129181;29;20296;-81
2022/09/21 00:17:36;;;;;;;2.75;1.95;;;20.10;99.80;;;;;;10127974;29;20261;-81
2022/09/21 00:22:38;;;;;;;2.92;2.13;;;20.10;99.70;;;;;;10129203;29;20268;-81
2022/09/21 00:27:41;;;;;;;2.55;1.65;;;20.10;99.70;;;;;;10112083;29;20268;-81
2022/09/21 00:32:43;;;;;;;2.35;1.60;;;20.10;99.70;;;;;;10128910;29;20613;-81
2022/09/21 00:37:45;;;;;;;2.75;1.92;;;20.10;99.80;;;;;;10095352;29;20325;-81
2022/09/21 00:42:48;;;;;;;2.47;2.00;;;20.10;99.70;;;;;;10129359;29;20264;-81
2022/09/21 00:47:51;;;;;;;3.53;2.38;;;20.10;99.70;;;;;;10111870;29;20248;-81
2022/09/21 00:52:56;;;;;;;3.55;2.30;;;20.10;99.80;;;;;;10128143;29;20263;-81
2022/09/21 00:58:03;;;;;;;2.00;1.70;;;20.10;99.70;;;;;;10111766;29;20284;-81
2022/09/21 01:03:08;;;;;;;1.92;1.83;;;19.90;99.90;;;;;;10126966;29;20239;-81
2022/09/21 01:08:12;;;;;;;2.53;2.03;;;20.00;99.90;;;;;;10127656;29;20311;-81
2022/09/21 01:13:36;;;;;;;3.05;2.17;;;20.00;99.90;;;;;;10111809;29;20316;-81
2022/09/21 01:19:05;;;;;;;2.17;1.92;;;20.00;99.90;;;;;;10103575;29;20240;-81
2022/09/21 01:24:30;;;;;;;2.95;2.28;;;20.10;99.90;;;;;;10106237;29;20247;-81
2022/09/21 01:29:58;;;;;;;2.30;2.10;;;20.00;99.90;;;;;;10131657;29;20252;-81
2022/09/21 01:35:16;;;;;;;2.72;1.60;;;20.10;99.80;;;;;;10131319;29;20275;-81
2022/09/21 01:40:29;;;;;;;2.17;1.98;;;20.10;99.80;;;;;;10099209;29;20300;-81
2022/09/21 01:45:43;;;;;;;2.55;1.98;;;20.10;99.70;;;;;;10110640;29;20669;-81
2022/09/21 01:50:51;;;;;;;2.28;1.45;;;20.10;99.60;;;;;;10075192;29;20695;-82
2022/09/21 01:56:19;;;;;;;3.13;2.10;;;19.60;99.90;;;;;;10079301;29;20969;-81
2022/09/21 02:01:26;;;;;;;2.65;1.75;;;19.90;99.90;;;;;;10096475;29;20656;-81
2022/09/21 02:06:30;;;;;;;2.30;1.75;;;20.10;99.90;;;;;;10132669;29;20637;-81
2022/09/21 02:11:33;;;;;;;2.38;1.92;;;20.10;99.80;;;;;;10133483;29;20642;-81
2022/09/21 02:16:41;;;;;;;2.35;1.90;;;20.20;99.70;;;;;;10116279;29;20291;-81
2022/09/21 02:22:08;;;;;;;3.22;2.20;;;20.20;99.70;;;;;;10133073;29;20243;-81
2022/09/21 02:27:20;;;;;;;2.85;2.10;;;20.10;99.70;;;;;;10100076;29;20675;-81
2022/09/21 02:32:26;;;;;;;3.58;2.13;;;20.10;99.60;;;;;;10116018;29;20236;-81
2022/09/21 02:37:38;;;;;;;2.35;1.60;;;19.90;99.70;;;;;;10130998;29;20910;-81
2022/09/21 02:42:44;;;;;;;1.55;1.42;;;20.10;99.80;;;;;;10131819;29;20315;-81
2022/09/21 02:48:14;;;;;;;2.55;2.10;;;20.20;99.60;;;;;;10132172;29;20263;-81
2022/09/21 02:53:25;;;;;;;2.97;1.95;;;20.10;99.50;;;;;;10132075;29;20979;-81
2022/09/21 02:58:29;;;;;;;2.15;1.75;;;20.10;99.60;;;;;;10115144;29;20228;-81
2022/09/21 03:03:32;;;;;;;2.40;1.65;;;20.10;99.60;;;;;;10107023;29;20264;-81
2022/09/21 03:08:34;;;;;;;4.53;2.20;;;19.50;99.90;;;;;;10129963;29;20251;-81
2022/09/21 03:13:37;;;;;;;1.92;1.55;;;20.00;99.90;;;;;;10131528;29;20283;-81
2022/09/21 03:18:42;;;;;;;1.83;1.52;;;20.10;99.70;;;;;;10130988;29;20232;-81
2022/09/21 03:23:44;;;;;;;3.88;2.00;;;20.00;99.90;;;;;;10130893;29;20288;-81
2022/09/21 03:28:48;;;;;;;2.03;1.58;;;19.70;99.90;;;;;;10130727;29;20689;-81
2022/09/21 03:33:50;;;;;;;2.47;1.90;;;20.00;99.90;;;;;;10145151;29;20243;-81
2022/09/21 03:38:53;;;;;;;2.45;1.52;;;20.10;99.70;;;;;;10129396;29;20595;-81
2022/09/21 03:43:55;;;;;;;3.08;1.65;;;20.10;99.70;;;;;;10113920;29;20244;-81
2022/09/21 03:48:57;;;;;;;2.97;1.70;;;19.90;99.90;;;;;;10113349;29;20323;-81
2022/09/21 03:54:00;;;;;;;2.13;1.67;;;20.10;99.60;;;;;;10160485;29;20231;-81
2022/09/21 03:59:02;;;;;;;2.95;2.03;;;20.10;99.60;;;;;;10129259;29;20209;-81
2022/09/21 04:04:05;;;;;;;1.98;1.60;;;20.10;99.40;;;;;;10113656;29;20280;-81
2022/09/21 04:09:07;;;;;;;2.55;1.73;;;20.20;99.40;;;;;;10130017;29;20815;-81
2022/09/21 04:14:11;;;;;;;2.15;1.60;;;20.10;99.90;;;;;;10113630;29;20257;-81
2022/09/21 04:19:13;;;;;;;1.80;1.52;;;20.10;99.50;;;;;;10113465;29;20288;-81
2022/09/21 04:24:18;;;;;;;5.95;1.60;;;20.20;99.40;;;;;;10130580;29;20240;-81
2022/09/21 04:29:20;;;;;;;3.03;1.52;;;20.20;99.40;;;;;;10129245;29;20255;-81
2022/09/21 04:34:23;;;;;;;1.58;1.48;;;20.20;99.40;;;;;;10112622;29;20669;-81
2022/09/21 04:39:25;;;;;;;2.90;1.70;;;20.10;99.40;;;;;;10111955;29;20291;-81
2022/09/21 04:44:29;;;;;;;2.45;2.10;;;20.10;99.50;;;;;;10111368;29;20649;-81
2022/09/21 04:49:31;;;;;;;2.35;1.63;;;20.00;99.50;;;;;;10128629;29;20260;-81
2022/09/21 04:54:33;;;;;;;1.88;1.67;;;20.00;99.80;;;;;;10127299;29;20232;-81
2022/09/21 04:59:36;;;;;;;2.22;1.50;;;20.00;99.70;;;;;;10110316;29;20247;-81
2022/09/21 05:04:38;;;;;;;2.03;1.60;;;19.80;99.90;;;;;;10155177;29;20235;-81
2022/09/21 05:15:02;;;;;;;2.88;2.55;;;19.90;99.90;;;;;;10134817;29;20288;-81
2022/09/21 05:20:05;;;;;;;2.50;2.03;;;19.80;99.90;;;;;;10136209;29;20303;-81
2022/09/21 05:25:08;;;;;;;4.10;2.40;;;19.60;99.90;;;;;;10135887;29;20267;-81
2022/09/21 05:30:11;;;;;;;2.50;2.30;;;19.80;98.70;;;;;;10134594;29;20698;-81
2022/09/21 05:35:22;;;;;;;3.05;1.95;;;19.80;98.10;;;;;;10097233;29;20286;-81
2022/09/21 05:40:25;;;;;;;2.47;2.28;;;19.80;98.20;;;;;;10111588;29;20262;-82
2022/09/21 05:45:28;;;;;;;3.83;2.22;;;19.60;98.60;;;;;;10174594;29;20690;-81
2022/09/21 05:50:42;;;;;;;2.67;1.90;;;19.90;98.10;;;;;;10157359;29;20302;-81
2022/09/21 05:55:55;;;;;;;2.55;2.28;;;19.90;98.10;;;;;;10156424;29;20235;-81
2022/09/21 06:00:58;;;;;;;3.20;2.13;;;19.40;99.20;;;;;;10171856;29;20283;-81
2022/09/21 06:06:01;;;;;;;3.70;2.92;;;20.00;97.90;;;;;;10186543;29;20278;-81
2022/09/21 06:11:04;;;;;;;2.90;2.42;;;20.10;97.70;;;;;;10211990;29;20313;-82
2022/09/21 06:16:06;;;;;;;3.08;2.08;;;19.30;99.60;;;;;;10212209;29;20235;-82
2022/09/21 06:21:09;;;;;;;2.17;1.83;;;19.80;98.40;;;;;;10212223;29;20238;-82
2022/09/21 06:26:11;;;;;;;3.00;2.17;;;19.70;99.00;;;;;;10210158;29;20290;-83
2022/09/21 06:31:14;;;;;;;1.90;1.65;;;19.90;98.10;;;;;;10195065;29;20254;-82
2022/09/21 06:36:16;;;;;;;3.97;2.55;;;20.00;98.20;;;;;;10194127;29;20199;-82
2022/09/21 06:41:19;;;;;;;2.22;2.03;;;19.40;98.30;;;;;;10194558;29;20298;-82
2022/09/21 06:46:23;;;;;;;2.25;2.05;;;19.60;99.40;;;;;;10194843;29;20569;-83
2022/09/21 06:51:25;;;;;;;2.60;2.15;;;19.90;98.80;;;;;;10211576;29;20279;-83
2022/09/21 06:56:28;;;;;;;2.60;1.85;;;19.20;99.90;;;;;;10211107;29;20239;-82
2022/09/21 07:01:30;;;;;;;2.85;2.28;;;20.00;98.60;;;;;;10193277;29;20235;-83
2022/09/21 07:06:33;;;;;;;4.30;1.92;;;20.10;98.00;;;;;;10209923;29;20230;-82
2022/09/21 07:11:35;;;;;;;2.15;1.65;;;20.30;97.60;;;;;;10210634;29;20832;-82
2022/09/21 07:16:38;;;;;;;1.70;1.38;;;19.60;99.40;;;;;;10210570;29;20226;-83
2022/09/21 07:21:41;;;;;;;2.75;1.75;;;20.10;98.50;;;;;;10193235;29;20231;-82
2022/09/21 07:26:43;;;;;;;2.35;2.15;;;20.20;98.30;;;;;;10209194;29;20289;-82
2022/09/21 07:31:47;;;;;;;2.30;1.60;;;20.10;98.20;;;;;;10193095;29;20235;-82
2022/09/21 07:36:49;;;;;;;2.42;2.22;;;20.00;98.70;;;;;;10192501;29;20202;-82
2022/09/21 07:41:52;;;;;;;2.22;2.03;;;19.80;97.20;;;;;;10209090;29;20238;-82
2022/09/21 07:46:55;;;;;;;3.15;2.05;;;19.70;99.10;;;;;;10209245;29;20223;-83
2022/09/21 07:51:57;;;;;;;2.17;1.70;;;19.40;99.80;;;;;;10191741;29;20705;-83
2022/09/21 08:02:27;;;;;;;1.90;1.63;;;20.20;98.20;;;;;;10208970;29;20306;-82
2022/09/21 08:07:29;;;;;;;1.88;1.67;;;20.00;98.80;;;;;;10208839;29;20278;-82
2022/09/21 08:12:32;;;;;;;4.40;2.17;;;19.80;98.20;;;;;;10191477;29;20226;-83
2022/09/21 08:17:36;;;;;;;1.87;1.67;;;19.90;98.80;;;;;;10208403;29;20222;-82
2022/09/21 08:22:39;;;;;;;2.73;2.00;;;19.30;99.90;;;;;;10207380;29;20218;-82
2022/09/21 08:27:42;;;;;;;1.98;1.73;;;18.90;99.90;;;;;;10207880;29;20722;-81
2022/09/21 08:32:44;;;;;;;6.20;3.77;;;19.10;99.90;;;;;;10191272;29;20223;-81
2022/09/21 08:37:53;;;;;;;5.73;3.40;;;18.90;99.90;;;;;;10211075;29;20750;-81
2022/09/21 08:43:14;;;;;;;5.87;2.70;;;18.70;99.90;;;;;;10216193;29;20246;-82
2022/09/21 08:48:23;;;;;;;4.95;2.17;;;19.50;99.70;;;;;;10198831;29;20262;-81
2022/09/21 08:53:48;;;;;;;5.07;2.03;;;19.40;99.10;;;;;;10207702;29;20621;-81
2022/09/21 08:58:50;;;;;;;3.80;2.72;;;18.90;99.40;;;;;;10199014;29;20640;-81
2022/09/21 09:03:58;;;;;;;3.03;1.87;;;;;;;;;;10214633;29;20679;-81
2022/09/21 09:09:16;;;;;;;2.00;1.43;;;14.40;99.90;;;;;;10214214;29;20278;-81
2022/09/21 09:14:28;;;;;;;2.13;1.80;;;14.10;99.90;;;;;;10197323;29;20580;-81
2022/09/21 09:19:40;;;;;;;2.20;1.50;;;14.30;99.90;;;;;;10215007;29;20295;-81
2022/09/21 09:24:48;;;;;;;5.23;1.90;;;13.80;99.90;;;;;;10214682;29;20293;-81
2022/09/21 09:29:57;;;;;;;2.13;1.73;;;;;;;;;;10213630;29;20250;-81
2022/09/21 09:35:18;;;;;;;2.67;1.43;;;13.70;99.90;;;;;;10197007;29;20307;-81
2022/09/21 09:40:50;;;;;;;2.70;1.70;;;14.20;99.90;;;;;;10213454;29;20234;-81
2022/09/21 09:46:08;;;;;;;2.00;1.70;;;14.00;99.90;;;;;;10223386;29;20206;-81
2022/09/21 09:51:14;;;;;;;6.73;2.57;;;14.30;99.90;;;;;;10195843;29;20337;-81
2022/09/21 09:56:17;;;;;;;4.90;1.70;;;14.60;99.90;;;;;;10213079;29;20289;-81
2022/09/21 10:01:36;;;;;;;1.60;1.50;;;14.60;99.90;;;;;;10213135;29;20242;-81
2022/09/21 10:06:39;;;;;;;5.17;1.40;;;14.60;99.90;;;;;;10212603;29;20724;-81
2022/09/21 10:11:48;;;;;;;1.77;1.50;;;14.60;99.90;;;;;;10195953;29;20297;-82
2022/09/21 10:16:52;;;;;;;3.10;1.70;;;13.90;99.90;;;;;;10195824;29;20233;-81
2022/09/21 10:21:59;;;;;;;3.63;1.93;;;13.80;99.90;;;;;;10195327;29;20698;-81
2022/09/21 10:27:04;;;;;;;3.43;2.03;;;13.90;99.90;;;;;;10211942;29;20245;-81
2022/09/21 10:32:12;;;;;;;2.43;2.20;;;14.20;99.90;;;;;;10194867;29;20315;-82
2022/09/21 10:37:36;;;;;;;2.47;1.77;;;14.60;99.90;;;;;;10211515;29;20274;-81
2022/09/21 10:42:42;;;;;;;1.70;1.43;;;15.10;99.90;;;;;;10210789;29;20718;-81
2022/09/21 10:47:56;;;;;;;3.57;1.80;;;14.50;99.90;;;;;;10211427;29;20258;-81
2022/09/21 10:53:07;;;;;;;3.93;1.70;;;13.80;99.90;;;;;;10211321;29;20503;-82
2022/09/21 10:58:12;;;;;;;2.20;1.80;;;13.90;99.90;;;;;;10193867;29;20238;-81
2022/09/21 11:03:29;;;;;;;1.90;1.33;;;14.00;99.90;;;;;;10211423;29;20242;-81
2022/09/21 11:08:42;;;;;;;1.87;1.20;;;14.10;99.90;;;;;;10210672;29;20542;-81
2022/09/21 11:14:06;;;;;;;2.80;2.17;;;14.30;99.90;;;;;;10210303;29;20239;-81
2022/09/21 11:19:23;;;;;;;3.97;2.10;;;12.90;99.90;;;;;;10210422;29;20236;-82
2022/09/21 11:24:51;;;;;;;3.83;1.70;;;11.10;99.90;;;;;;10209879;29;20247;-81
2022/09/21 11:30:10;;;;;;;2.37;1.60;;;11.40;99.90;;;;;;10193232;29;20269;-82
2022/09/21 11:35:32;;;;;;;2.27;1.40;;;11.70;99.90;;;;;;10209437;29;20691;-81
2022/09/21 11:40:41;;;;;;;1.47;1.00;;;12.20;99.90;;;;;;10209327;29;20269;-81
2022/09/21 11:46:08;;;;;;;2.43;1.60;;;12.60;99.90;;;;;;10209254;29;20288;-82
2022/09/21 11:51:42;;;;;;;1.87;1.30;;;12.50;99.90;;;;;;10208786;29;20263;-81
2022/09/21 11:56:51;;;;;;;2.57;2.37;;;12.60;99.90;;;;;;10191902;29;20232;-81
2022/09/21 12:02:27;;;;;;;2.63;2.27;;;12.70;99.90;;;;;;10192353;29;20245;-82
2022/09/21 12:07:58;;;;;;;3.47;2.90;;;12.80;99.90;;;;;;10175583;29;20583;-81
2022/09/21 12:13:03;;;;;;;3.57;3.00;;;13.00;99.90;;;;;;10208602;29;20245;-81
2022/09/21 12:18:28;;;;;;;2.40;1.60;;;13.00;99.90;;;;;;10207890;29;20290;-82
2022/09/21 12:23:51;;;;;;;1.20;1.10;;;13.00;99.90;;;;;;10208126;29;20276;-81
2022/09/21 12:29:00;;;;;;;2.23;0.90;;;12.90;99.90;;;;;;10190291;29;20714;-80
2022/09/21 12:34:17;;;;;;;0.97;0.63;;;12.80;99.90;;;;;;10208630;29;20233;-81
2022/09/21 12:39:29;;;;;;;0.90;0.60;;;12.70;99.90;;;;;;10190409;29;20703;-81
2022/09/21 12:45:03;;;;;;;0.57;0.53;;;13.10;99.90;;;;;;10208317;29;20238;-81
2022/09/21 12:50:40;;;;;;;1.40;1.17;;;13.10;99.90;;;;;;10208181;29;20253;-80
2022/09/21 12:56:03;;;;;;;1.47;1.10;;;13.20;99.90;;;;;;10189747;29;20233;-81
2022/09/21 13:01:35;;;;;;;1.50;1.10;;;13.50;99.90;;;;;;10208131;29;20243;-80
2022/09/21 13:06:41;;;;;;;6.40;4.53;;;14.00;99.90;;;;;;10188933;29;20644;-81
2022/09/21 13:11:53;;;;;;;3.93;2.90;;;15.30;99.90;;;;;;10189428;29;20266;-81
2022/09/21 13:16:59;;;;;;;1.67;1.30;;;14.90;99.90;;;;;;10190376;29;20239;-81
2022/09/21 13:22:18;;;;;;;5.90;2.03;;;14.90;99.90;;;;;;10207427;29;20676;-81
2022/09/21 13:27:21;;;;;;;1.17;1.07;;;14.00;99.90;;;;;;10214524;29;20243;-81
2022/09/21 13:32:43;;;;;;;1.63;1.10;;;13.10;99.90;;;;;;10181691;29;20269;-81
2022/09/21 13:38:22;;;;;;;2.30;1.80;;;12.90;99.90;;;;;;10212726;29;20284;-81
2022/09/21 13:43:45;;;;;;;3.33;2.50;;;15.20;99.90;;;;;;10213281;29;20765;-81
2022/09/21 13:48:52;;;;;;;4.40;3.10;;;18.10;99.90;;;;;;10214726;29;20261;-81
2022/09/21 13:53:58;;;;;;;2.97;1.90;;;19.10;99.90;;;;;;10214079;29;20261;-81
2022/09/21 13:59:00;;;;;;;3.97;2.03;;;19.60;99.90;;;;;;10214425;29;20309;-81
2022/09/21 14:04:15;;;;;;;3.70;1.97;;;20.00;99.90;;;;;;10213322;29;20230;-81
2022/09/21 14:09:39;;;;;;;2.33;1.50;;;20.50;99.90;;;;;;10218793;29;20787;-81
2022/09/21 14:14:42;;;;;;;1.70;1.40;;;20.80;99.90;;;;;;10236354;29;20277;-81
2022/09/21 14:19:53;;;;;;;1.80;1.43;;;20.80;99.90;;;;;;10209889;29;20291;-81
2022/09/21 14:25:23;;;;;;;4.17;1.60;;;20.70;99.90;;;;;;10196334;29;20282;-81
2022/09/21 14:30:33;;;;;;;2.97;1.70;;;21.10;99.90;;;;;;10212127;29;20349;-81
2022/09/21 14:35:44;;;;;;;1.67;1.27;;;21.20;99.90;;;;;;10210019;29;20939;-81
2022/09/21 14:40:53;;;;;;;2.67;1.65;;;21.00;99.90;;;;;;10204167;29;20716;-81
2022/09/21 14:46:07;;;;;;;2.10;1.40;;;20.20;99.90;;;;;;10196893;29;20339;-81
2022/09/21 14:51:37;;;;;;;2.53;1.50;;;20.50;99.90;;;;;;10209855;29;20286;-81
2022/09/21 14:56:50;;;;;;;1.85;1.10;;;20.90;99.90;;;;;;10177099;29;20243;-81
2022/09/21 15:02:01;;;;;;;1.58;1.38;;;19.90;99.90;;;;;;10188508;29;20290;-82
2022/09/21 15:13:19;;;;;;;1.58;1.20;;;21.20;99.90;;;;;;10187298;29;20243;-82
2022/09/21 15:18:22;;;;;;;1.48;1.20;;;21.20;99.90;;;;;;10186876;29;20231;-82
2022/09/21 15:23:25;;;;;;;1.90;1.27;;;20.90;99.90;;;;;;10177839;29;20234;-81
2022/09/21 15:28:37;;;;;;;2.38;1.48;;;21.10;99.90;;;;;;10208928;29;20235;-82
2022/09/21 15:34:01;;;;;;;1.35;0.90;;;20.80;99.90;;;;;;10209831;29;20231;-81
2022/09/21 15:39:04;;;;;;;2.03;1.50;;;19.80;99.90;;;;;;10192060;29;20663;-82
2022/09/21 15:44:15;;;;;;;4.07;2.17;;;20.10;99.90;;;;;;10209677;29;20627;-82
2022/09/21 15:49:22;;;;;;;1.40;1.10;;;20.70;99.90;;;;;;10191790;29;20262;-82
2022/09/21 15:54:44;;;;;;;2.30;0.77;;;21.00;99.90;;;;;;10192470;29;20226;-81
2022/09/21 15:59:47;;;;;;;1.63;1.33;;;21.00;99.90;;;;;;10192265;29;20557;-81
2022/09/21 16:04:51;;;;;;;1.95;1.50;;;21.20;99.90;;;;;;10189749;29;20243;-81
2022/09/21 16:09:53;;;;;;;1.35;1.10;;;21.10;99.90;;;;;;10192386;29;20254;-81
2022/09/21 16:15:07;;;;;;;1.20;0.80;;;21.00;99.90;;;;;;10207553;29;20238;-81
2022/09/21 16:20:19;;;;;;;1.33;0.98;;;21.10;99.90;;;;;;10208656;29;20297;-81
2022/09/21 16:25:33;;;;;;;1.65;1.08;;;21.10;99.90;;;;;;10192129;29;20581;-81
2022/09/21 16:31:21;;;;;;;1.33;1.13;;;21.10;99.90;;;;;;9865697;29;9999593;-81
2022/09/21 16:36:30;;;;;;;1.73;1.13;;;21.10;99.90;;;;;;10178619;29;20239;-81
2022/09/21 16:41:37;;;;;;;1.60;1.15;;;21.10;99.90;;;;;;10204535;29;20663;-81
2022/09/21 16:46:42;;;;;;;2.72;1.73;;;21.00;99.90;;;;;;10166596;29;20235;-81
2022/09/21 16:51:48;;;;;;;1.55;1.10;;;20.90;99.90;;;;;;10133077;29;20259;-81
2022/09/21 16:56:53;;;;;;;1.67;1.38;;;20.90;99.90;;;;;;10187403;29;20292;-81
2022/09/21 17:01:56;;;;;;;2.47;1.40;;;20.80;99.90;;;;;;10195798;29;20227;-81
2022/09/21 17:07:00;;;;;;;2.80;1.95;;;20.80;99.90;;;;;;10156414;29;20231;-81
2022/09/21 17:12:05;;;;;;;2.67;1.98;;;20.70;99.90;;;;;;10176480;29;20880;-81
2022/09/21 17:17:17;;;;;;;3.15;1.80;;;20.70;99.90;;;;;;10194928;29;20239;-81
2022/09/21 17:22:20;;;;;;;3.67;1.75;;;20.70;99.90;;;;;;10194297;29;20834;-81
2022/09/21 17:27:25;;;;;;;3.63;2.13;;;20.60;99.90;;;;;;10212320;29;20707;-81
2022/09/21 17:32:28;;;;;;;4.78;2.67;;;20.60;99.90;;;;;;10252095;29;20671;-81
2022/09/21 17:37:32;;;;;;;6.53;3.88;;;20.50;99.90;;;;;;10244378;29;21036;-81
2022/09/21 17:42:39;;;;;;;7.20;5.13;;;20.50;99.90;;;;;;10233835;29;20242;-81
2022/09/21 17:47:42;;;;;;;12.70;6.65;;;20.40;99.90;;;;;;10233744;29;20296;-81
2022/09/21 17:58:22;;;;;;;9.80;6.43;;;20.40;99.90;;;;;;10192934;29;20302;-81
2022/09/21 18:03:27;;;;;;;10.10;6.32;;;20.40;99.90;;;;;;10232757;29;20265;-81
2022/09/21 18:08:32;;;;;;;9.60;6.32;;;20.40;99.90;;;;;;10225998;28;20235;-81
2022/09/21 18:13:37;;;;;;;8.95;5.72;;;20.40;99.90;;;;;;10212313;29;20821;-83
2022/09/21 18:18:45;;;;;;;10.20;6.82;;;20.40;99.90;;;;;;10195642;29;20297;-81
2022/09/21 18:24:13;;;;;;;9.90;6.30;;;20.40;99.90;;;;;;10210348;29;20238;-85
2022/09/21 18:29:42;;;;;;;11.32;6.57;;;20.40;99.90;;;;;;10194009;29;20243;-83
2022/09/21 18:35:19;;;;;;;8.20;5.78;;;20.50;99.90;;;;;;10190717;29;20646;-83
2022/09/21 18:40:55;;;;;;;6.95;5.43;;;20.50;99.90;;;;;;10193601;29;20279;-82
2022/09/21 18:46:04;;;;;;;10.95;5.85;;;20.50;99.90;;;;;;10188381;29;20234;-85
2022/09/21 18:51:26;;;;;;;7.70;5.03;;;20.40;99.90;;;;;;10209898;29;20300;-83
2022/09/21 18:56:34;;;;;;;7.25;4.95;;;20.40;99.90;;;;;;10211071;29;20293;-83
2022/09/21 19:01:37;;;;;;;10.40;6.07;;;20.40;99.90;;;;;;10193839;29;20235;-83
2022/09/21 19:06:58;;;;;;;9.30;5.93;;;20.40;99.90;;;;;;10192828;29;20230;-82
2022/09/21 19:12:19;;;;;;;9.25;5.82;;;20.40;99.90;;;;;;10192099;29;20313;-83
2022/09/21 19:17:41;;;;;;;8.50;6.00;;;20.40;99.90;;;;;;10169785;29;20255;-82
2022/09/21 19:22:47;;;;;;;9.23;5.78;;;20.40;99.90;;;;;;10168664;29;20247;-82
2022/09/21 19:27:58;;;;;;;7.95;5.93;;;20.40;99.90;;;;;;10153663;29;20247;-82
2022/09/21 19:33:18;;;;;;;9.90;6.53;;;20.40;99.90;;;;;;10209515;29;20247;-82
2022/09/21 19:38:41;;;;;;;7.47;5.60;;;20.30;99.90;;;;;;10209314;29;20258;-82
2022/09/21 19:44:28;;;;;;;8.70;6.32;;;20.30;99.90;;;;;;10208820;29;20266;-82
2022/09/21 19:49:54;;;;;;;7.53;5.75;;;20.30;99.90;;;;;;10010797;29;20245;-85
2022/09/21 20:00:19;;;;;;;8.95;6.45;;;20.30;99.90;;;;;;10020427;29;20289;-83
2022/09/21 20:05:33;;;;;;;11.47;6.60;;;20.30;99.90;;;;;;9997658;29;20272;-81
2022/09/21 20:10:47;;;;;;;8.43;5.93;;;18.70;99.90;;;;;;9993899;29;20313;-81
2022/09/21 20:15:55;;;;;;;8.85;6.38;;;19.90;99.90;;;;;;9965716;29;20259;-80
2022/09/21 20:21:00;;;;;;;8.85;6.15;;;20.20;99.90;;;;;;9983874;29;20234;-80
2022/09/21 20:26:13;;;;;;;7.45;5.45;;;20.30;99.90;;;;;;10125028;29;20226;-80
2022/09/21 20:31:15;;;;;;;9.55;6.18;;;20.30;99.90;;;;;;10199730;29;20246;-80
2022/09/21 20:36:18;;;;;;;9.55;6.47;;;20.30;99.90;;;;;;10201740;29;20231;-80
2022/09/21 20:41:23;;;;;;;8.40;5.72;;;20.40;99.90;;;;;;10188122;29;20258;-80
2022/09/21 20:46:25;;;;;;;7.13;5.55;;;20.40;99.90;;;;;;10186610;29;20226;-81
2022/09/21 20:51:28;;;;;;;8.70;5.88;;;20.40;99.90;;;;;;10183861;29;20299;-80
2022/09/21 20:56:30;;;;;;;7.63;5.43;;;20.30;99.90;;;;;;10168605;29;20270;-80
2022/09/21 21:01:33;;;;;;;7.45;5.50;;;20.30;99.90;;;;;;10206993;29;20636;-81
2022/09/21 21:06:36;;;;;;;7.65;5.65;;;20.30;99.90;;;;;;10189065;29;20246;-81
2022/09/21 21:11:39;;;;;;;8.85;5.93;;;20.30;99.90;;;;;;10206786;29;20262;-80
2022/09/21 21:16:42;;;;;;;7.80;5.47;;;20.30;99.90;;;;;;10189335;29;20223;-80
2022/09/21 21:21:45;;;;;;;7.60;5.53;;;20.10;99.90;;;;;;10206288;29;20296;-80
2022/09/21 21:26:47;;;;;;;8.30;5.05;;;20.10;99.90;;;;;;10206396;29;20262;-80
2022/09/21 21:32:04;;;;;;;5.95;4.78;;;20.20;99.90;;;;;;10206171;29;20612;-81
2022/09/21 21:37:07;;;;;;;7.13;5.00;;;20.20;99.90;;;;;;10206088;29;20325;-81
2022/09/21 21:42:10;;;;;;;9.65;5.35;;;20.20;99.90;;;;;;10188504;29;20243;-80
2022/09/21 21:47:13;;;;;;;6.53;4.93;;;20.20;99.90;;;;;;10213221;29;20242;-80
2022/09/21 21:52:36;;;;;;;6.88;4.55;;;20.20;99.90;;;;;;10212470;29;20274;-80
2022/09/21 21:57:38;;;;;;;5.28;3.90;;;20.10;99.90;;;;;;10212880;29;20305;-80
2022/09/21 22:02:41;;;;;;;7.40;4.85;;;20.20;99.90;;;;;;10196004;29;20238;-80
2022/09/21 22:07:43;;;;;;;5.75;4.43;;;20.10;99.90;;;;;;10194800;29;20234;-81
2022/09/21 22:12:46;;;;;;;6.03;5.05;;;20.10;99.90;;;;;;10195384;29;20746;-81
2022/09/21 22:17:48;;;;;;;5.57;4.47;;;20.00;99.90;;;;;;10211997;29;20227;-81
2022/09/21 22:22:50;;;;;;;6.43;4.63;;;20.00;99.90;;;;;;10179138;29;20628;-80
2022/09/21 22:27:54;;;;;;;5.72;4.38;;;19.90;99.90;;;;;;10194551;29;20250;-80
2022/09/21 22:32:57;;;;;;;5.20;4.17;;;19.90;99.90;;;;;;10212169;29;20562;-81
2022/09/21 22:38:00;;;;;;;5.75;4.43;;;19.90;99.90;;;;;;10211105;29;20647;-81
2022/09/21 22:43:02;;;;;;;7.95;4.28;;;19.90;99.90;;;;;;10211370;29;20246;-80
2022/09/21 22:48:05;;;;;;;5.40;3.83;;;19.90;99.90;;;;;;10178522;29;20287;-81
2022/09/21 22:53:07;;;;;;;5.35;4.10;;;19.90;99.90;;;;;;10194250;29;20297;-81
2022/09/21 22:58:09;;;;;;;5.93;4.60;;;19.90;99.90;;;;;;10209959;29;20234;-80
2022/09/21 23:03:12;;;;;;;5.93;4.10;;;20.00;99.90;;;;;;10210696;29;20259;-80
2022/09/21 23:08:14;;;;;;;4.93;4.05;;;20.00;99.90;;;;;;10193402;29;20354;-80
2022/09/21 23:13:17;;;;;;;5.00;3.90;;;20.00;99.90;;;;;;10193838;29;20325;-80
2022/09/21 23:18:20;;;;;;;6.30;3.67;;;20.00;99.90;;;;;;10193312;29;20934;-80
2022/09/21 23:23:22;;;;;;;5.28;3.85;;;20.00;99.90;;;;;;10193348;29;20234;-81
2022/09/21 23:28:25;;;;;;;5.43;3.70;;;20.00;99.90;;;;;;10210125;29;20242;-80
2022/09/21 23:33:39;;;;;;;5.90;3.53;;;20.00;99.90;;;;;;10192967;29;20255;-81
2022/09/21 23:38:43;;;;;;;5.97;3.97;;;20.00;99.90;;;;;;10209236;29;20259;-80
2022/09/21 23:43:45;;;;;;;5.22;3.75;;;20.00;99.90;;;;;;10176968;29;20246;-80
2022/09/21 23:48:49;;;;;;;5.40;3.70;;;20.00;99.90;;;;;;10209314;29;20234;-80
2022/09/21 23:53:51;;;;;;;3.53;3.13;;;20.00;99.90;;;;;;10191817;29;20258;-80
2022/09/21 23:58:54;;;;;;;4.18;3.38;;;20.00;99.90;;;;;;10208853;29;20293;-80
